Welcome to Northern Hawkes Bay. New Zealand.
PWS Header
      nz Flag



Hit Counter


W3C Valid W3C Valid logo


    Wairoa

Select any of the Stations below to visit their websites.










Historic Data from Weather Underground
Select the location of interest below. Wairoa is the default. Please have patience, this Data is slow to load in.
Northern Hawkes Bay Historical Data
Daily Summary for July 22, 2017 Units:  Metric    English   Both
« Previous Day
Next Day »
Daily Weekly Monthly Yearly Custom
  High: Low: Average:
Temperature: 15.9 °C 10.6 °C 13.1 °C
Dew Point: 11.7 °C 5.2 °C 8.5 °C
Humidity: 96% 56% 75%
Wind Speed: 25.6km/h 0.0km/h 8.7km/h
Wind Gust: 41.7km/h - -
Wind- - SW
Pressure: 997.2 hPa 984.3 hPa -
Precipitation: 6.6 mm    
Historical Graphs
 
 
Tabular Data for July 22, 2017
Time Temperature Dew Point Pressure Wind Wind Speed Wind Gust Humidity Rainfall Rate (Hourly) solar
00:02 11.9 °C 5.6 °C 985.7 hPa NNW 9.7 km/h 15.8 km/h 65% 0.0 mm 0 W/m2
00:07 12.1 °C 5.5 °C 986.0 hPa NNW 5.0 km/h 19.5 km/h 64% 0.0 mm 0 W/m2
00:12 12.1 °C 5.3 °C 986.0 hPa NNW 5.0 km/h 23.3 km/h 63% 0.0 mm 0 W/m2
00:17 12.1 °C 5.3 °C 986.0 hPa North 9.7 km/h 23.3 km/h 63% 0.0 mm 0 W/m2
00:37 12.1 °C 5.3 °C 985.7 hPa North 3.5 km/h 25.6 km/h 63% 0.0 mm 0 W/m2
00:42 11.8 °C 5.2 °C 985.3 hPa North 7.2 km/h 13.4 km/h 64% 0.0 mm 0 W/m2
00:47 11.9 °C 5.6 °C 985.3 hPa NNE 7.2 km/h 13.4 km/h 65% 0.0 mm 0 W/m2
00:52 11.9 °C 5.6 °C 985.3 hPa North 8.7 km/h 17.2 km/h 65% 0.0 mm 0 W/m2
00:57 12.1 °C 5.3 °C 985.7 hPa North 8.7 km/h 18.3 km/h 63% 0.0 mm 0 W/m2
01:02 12.2 °C 5.4 °C 985.3 hPa North 14.8 km/h 25.6 km/h 63% 0.0 mm 0 W/m2
01:07 12.4 °C 5.6 °C 985.3 hPa NNW 9.7 km/h 25.6 km/h 63% 0.0 mm 0 W/m2
01:12 12.6 °C 5.5 °C 985.3 hPa NNW 19.5 km/h 29.4 km/h 62% 0.0 mm 0 W/m2
01:17 12.9 °C 5.6 °C 985.3 hPa NNW 19.5 km/h 29.4 km/h 61% 0.0 mm 0 W/m2
01:22 13.0 °C 5.7 °C 985.3 hPa NNW 9.7 km/h 29.4 km/h 61% 0.0 mm 0 W/m2
01:27 13.1 °C 5.8 °C 985.0 hPa NNW 19.5 km/h 31.7 km/h 61% 0.0 mm 0 W/m2
01:32 13.1 °C 5.5 °C 985.3 hPa NNW 13.4 km/h 31.7 km/h 60% 0.0 mm 0 W/m2
01:37 13.2 °C 5.6 °C 985.0 hPa NNW 9.7 km/h 23.3 km/h 60% 0.0 mm 0 W/m2
01:42 12.9 °C 5.8 °C 985.3 hPa North 15.8 km/h 23.3 km/h 62% 0.0 mm 0 W/m2
01:47 13.0 °C 5.7 °C 985.3 hPa North 8.7 km/h 24.5 km/h 61% 0.0 mm 0 W/m2
01:52 13.1 °C 5.5 °C 985.3 hPa North 12.2 km/h 25.6 km/h 60% 0.0 mm 0 W/m2
01:57 13.3 °C 5.7 °C 985.3 hPa North 9.7 km/h 25.6 km/h 60% 0.0 mm 0 W/m2
02:02 13.2 °C 5.6 °C 985.3 hPa North 6.1 km/h 21.9 km/h 60% 0.0 mm 0 W/m2
02:07 13.0 °C 5.7 °C 985.3 hPa NNW 9.7 km/h 17.2 km/h 61% 0.0 mm 0 W/m2
02:17 13.0 °C 5.7 °C 985.0 hPa NNW 7.2 km/h 17.2 km/h 61% 0.0 mm 0 W/m2
02:22 13.2 °C 5.6 °C 985.0 hPa NNW 11.1 km/h 24.5 km/h 60% 0.0 mm 0 W/m2
02:27 13.5 °C 5.7 °C 985.3 hPa NNW 19.5 km/h 31.7 km/h 59% 0.0 mm 0 W/m2
02:32 13.6 °C 5.7 °C 985.3 hPa NNW 15.8 km/h 31.7 km/h 59% 0.0 mm 0 W/m2
02:37 13.6 °C 5.7 °C 985.0 hPa NNW 11.1 km/h 31.7 km/h 59% 0.0 mm 0 W/m2
02:42 13.6 °C 5.7 °C 985.3 hPa NNW 6.1 km/h 25.6 km/h 59% 0.0 mm 0 W/m2
02:47 13.6 °C 5.7 °C 985.3 hPa NNW 7.2 km/h 25.6 km/h 59% 0.0 mm 0 W/m2
02:52 13.8 °C 5.9 °C 985.0 hPa NNW 17.2 km/h 34.3 km/h 59% 0.0 mm 0 W/m2
02:57 14.0 °C 5.6 °C 985.3 hPa NW 15.8 km/h 34.3 km/h 57% 0.0 mm 0 W/m2
03:02 13.9 °C 5.8 °C 985.3 hPa NNW 7.2 km/h 29.4 km/h 58% 0.0 mm 0 W/m2
03:07 14.0 °C 5.6 °C 985.0 hPa North 8.7 km/h 23.3 km/h 57% 0.0 mm 0 W/m2
03:12 13.9 °C 6.0 °C 985.0 hPa NW 8.7 km/h 21.9 km/h 59% 0.0 mm 0 W/m2
03:17 14.1 °C 5.7 °C 985.0 hPa NW 24.5 km/h 33.1 km/h 57% 0.0 mm 0 W/m2
03:22 14.1 °C 5.7 °C 985.0 hPa NNW 11.1 km/h 33.1 km/h 57% 0.0 mm 0 W/m2
03:27 13.9 °C 6.0 °C 985.3 hPa NNW 11.1 km/h 33.1 km/h 59% 0.0 mm 0 W/m2
03:32 14.0 °C 5.9 °C 985.0 hPa NNW 11.1 km/h 28.0 km/h 58% 0.0 mm 0 W/m2
03:37 13.8 °C 5.9 °C 984.6 hPa NNW 8.7 km/h 28.0 km/h 59% 0.0 mm 0 W/m2
03:42 13.8 °C 5.7 °C 984.6 hPa North 11.1 km/h 19.5 km/h 58% 0.0 mm 0 W/m2
03:47 13.9 °C 5.5 °C 984.6 hPa North 13.4 km/h 28.0 km/h 57% 0.0 mm 0 W/m2
03:52 14.1 °C 5.4 °C 984.6 hPa North 7.2 km/h 30.6 km/h 56% 0.0 mm 0 W/m2
03:57 14.1 °C 5.4 °C 984.6 hPa North 12.2 km/h 30.6 km/h 56% 0.0 mm 0 W/m2
04:02 14.1 °C 5.4 °C 984.6 hPa NNW 8.7 km/h 25.6 km/h 56% 0.0 mm 0 W/m2
04:07 13.8 °C 5.4 °C 984.6 hPa North 8.7 km/h 20.9 km/h 57% 0.0 mm 0 W/m2
04:12 13.6 °C 5.5 °C 984.6 hPa North 5.0 km/h 14.8 km/h 58% 0.0 mm 0 W/m2
04:17 13.5 °C 5.7 °C 984.6 hPa NNE 5.0 km/h 14.8 km/h 59% 0.0 mm 0 W/m2
04:22 13.5 °C 5.9 °C 984.6 hPa NNE 5.0 km/h 11.1 km/h 60% 0.0 mm 0 W/m2
04:27 13.4 °C 6.1 °C 984.6 hPa North 8.7 km/h 12.2 km/h 61% 0.0 mm 0 W/m2
04:32 13.5 °C 6.1 °C 984.6 hPa North 5.0 km/h 15.8 km/h 61% 0.0 mm 0 W/m2
04:37 13.5 °C 6.1 °C 984.6 hPa North 5.0 km/h 15.8 km/h 61% 0.0 mm 0 W/m2
04:42 13.4 °C 6.3 °C 984.6 hPa North 7.2 km/h 13.4 km/h 62% 0.0 mm 0 W/m2
04:47 13.5 °C 6.4 °C 984.6 hPa North 3.5 km/h 13.4 km/h 62% 0.0 mm 0 W/m2
04:52 13.5 °C 6.1 °C 984.6 hPa North 5.0 km/h 19.5 km/h 61% 0.0 mm 0 W/m2
04:57 13.5 °C 6.4 °C 984.6 hPa North 2.6 km/h 19.5 km/h 62% 0.0 mm 0 W/m2
05:02 13.4 °C 6.3 °C 984.6 hPa NNE 3.5 km/h 12.2 km/h 62% 0.0 mm 0 W/m2
05:07 13.4 °C 6.3 °C 984.6 hPa NNE 6.1 km/h 14.8 km/h 62% 0.0 mm 0 W/m2
05:12 13.6 °C 6.4 °C 984.6 hPa North 9.7 km/h 18.3 km/h 62% 0.0 mm 0 W/m2
05:17 13.8 °C 6.4 °C 984.3 hPa North 5.0 km/h 27.0 km/h 61% 0.0 mm 0 W/m2
05:23 13.6 °C 6.2 °C 984.3 hPa NNE 7.2 km/h 27.0 km/h 61% 0.0 mm 0 W/m2
05:28 13.6 °C 6.2 °C 984.6 hPa NNE 2.6 km/h 14.8 km/h 61% 0.0 mm 0 W/m2
05:33 13.3 °C 6.4 °C 984.6 hPa North 5.0 km/h 13.4 km/h 63% 0.0 mm 0 W/m2
05:38 13.3 °C 6.4 °C 984.6 hPa North 5.0 km/h 13.4 km/h 63% 0.0 mm 0 W/m2
05:43 13.3 °C 6.4 °C 984.3 hPa NNE 7.2 km/h 15.8 km/h 63% 0.0 mm 0 W/m2
05:49 13.5 °C 6.6 °C 984.3 hPa North 7.2 km/h 18.3 km/h 63% 0.0 mm 0 W/m2
05:54 13.5 °C 6.6 °C 984.6 hPa North 7.2 km/h 18.3 km/h 63% 0.0 mm 0 W/m2
05:59 13.5 °C 6.8 °C 984.3 hPa NNE 6.1 km/h 13.4 km/h 64% 0.0 mm 0 W/m2
06:04 13.4 °C 6.9 °C 984.6 hPa NNE 7.2 km/h 13.4 km/h 65% 0.0 mm 0 W/m2
06:09 13.5 °C 7.1 °C 984.6 hPa NNE 3.5 km/h 15.8 km/h 65% 0.0 mm 0 W/m2
06:14 13.5 °C 7.1 °C 984.3 hPa North 6.1 km/h 15.8 km/h 65% 0.0 mm 0 W/m2
06:19 13.5 °C 7.1 °C 984.3 hPa NNE 3.5 km/h 12.2 km/h 65% 0.0 mm 0 W/m2
06:24 13.6 °C 7.4 °C 984.3 hPa NNE 3.5 km/h 14.8 km/h 66% 0.0 mm 0 W/m2
06:29 13.6 °C 7.4 °C 984.3 hPa NNE 6.1 km/h 14.8 km/h 66% 0.0 mm 0 W/m2
06:34 13.6 °C 7.2 °C 984.6 hPa NNE 8.7 km/h 15.8 km/h 65% 0.0 mm 0 W/m2
06:39 13.6 °C 7.2 °C 984.3 hPa NNE 6.1 km/h 17.2 km/h 65% 0.0 mm 0 W/m2
06:44 13.6 °C 7.2 °C 984.3 hPa NNE 6.1 km/h 17.2 km/h 65% 0.0 mm 0 W/m2
06:49 13.6 °C 7.2 °C 984.3 hPa NNE 8.7 km/h 17.2 km/h 65% 0.0 mm 0 W/m2
06:54 13.6 °C 7.2 °C 984.3 hPa NNE 6.1 km/h 14.8 km/h 65% 0.0 mm 0 W/m2
06:59 13.6 °C 6.9 °C 984.6 hPa North 7.2 km/h 14.8 km/h 64% 0.0 mm 0 W/m2
07:04 13.6 °C 6.9 °C 984.3 hPa North 8.7 km/h 14.8 km/h 64% 0.0 mm 0 W/m2
07:09 13.8 °C 7.1 °C 984.3 hPa North 8.7 km/h 17.2 km/h 64% 0.0 mm 0 W/m2
07:14 13.6 °C 7.2 °C 984.3 hPa North 6.1 km/h 17.2 km/h 65% 0.0 mm 0 W/m2
07:19 13.6 °C 7.2 °C 984.3 hPa North 3.5 km/h 13.4 km/h 65% 0.0 mm 0 W/m2
07:24 13.6 °C 7.2 °C 984.3 hPa North 7.2 km/h 14.8 km/h 65% 0.0 mm 0 W/m2
07:29 13.6 °C 7.2 °C 984.3 hPa North 3.5 km/h 14.8 km/h 65% 0.0 mm 0 W/m2
07:34 13.6 °C 7.2 °C 984.6 hPa North 7.2 km/h 13.4 km/h 65% 0.0 mm 0 W/m2
07:39 13.6 °C 7.2 °C 984.6 hPa North 11.1 km/h 18.3 km/h 65% 0.0 mm 0 W/m2
07:44 13.8 °C 7.1 °C 984.3 hPa North 2.6 km/h 18.3 km/h 64% 0.0 mm 1 W/m2
07:49 13.6 °C 7.2 °C 984.6 hPa NNW 8.7 km/h 17.2 km/h 65% 0.0 mm 2 W/m2
07:54 13.8 °C 7.1 °C 984.6 hPa North 11.1 km/h 18.3 km/h 64% 0.0 mm 4 W/m2
07:59 13.9 °C 7.2 °C 984.6 hPa North 8.7 km/h 18.3 km/h 64% 0.0 mm 6 W/m2
08:04 14.1 °C 6.9 °C 984.6 hPa NNW 6.1 km/h 20.9 km/h 62% 0.0 mm 8 W/m2
08:09 14.2 °C 7.1 °C 984.6 hPa North 8.7 km/h 20.9 km/h 62% 0.0 mm 10 W/m2
08:14 14.1 °C 6.7 °C 984.6 hPa North 6.1 km/h 18.3 km/h 61% 0.0 mm 12 W/m2
08:19 14.1 °C 6.9 °C 984.6 hPa North 5.0 km/h 18.3 km/h 62% 0.0 mm 16 W/m2
08:24 14.1 °C 6.9 °C 984.6 hPa North 6.1 km/h 15.8 km/h 62% 0.0 mm 20 W/m2
08:29 14.1 °C 6.9 °C 984.6 hPa North 6.1 km/h 15.8 km/h 62% 0.0 mm 24 W/m2
08:34 13.9 °C 7.2 °C 984.6 hPa North 2.6 km/h 15.8 km/h 64% 0.0 mm 29 W/m2
08:39 13.8 °C 7.1 °C 984.6 hPa North 2.6 km/h 9.7 km/h 64% 0.0 mm 32 W/m2
08:44 13.8 °C 7.1 °C 985.0 hPa North 6.1 km/h 11.1 km/h 64% 0.0 mm 33 W/m2
08:49 13.9 °C 7.4 °C 985.0 hPa NNE 6.1 km/h 11.1 km/h 65% 0.0 mm 33 W/m2
08:54 13.9 °C 7.4 °C 985.0 hPa North 5.0 km/h 12.2 km/h 65% 0.0 mm 34 W/m2
08:59 14.0 °C 7.3 °C 985.0 hPa NNW 3.5 km/h 12.2 km/h 64% 0.0 mm 37 W/m2
09:04 14.1 °C 7.4 °C 985.0 hPa North 8.7 km/h 13.4 km/h 64% 0.0 mm 41 W/m2
09:09 14.3 °C 7.6 °C 985.0 hPa North 11.1 km/h 18.3 km/h 64% 0.0 mm 45 W/m2
09:14 14.4 °C 7.7 °C 985.0 hPa North 6.1 km/h 18.3 km/h 64% 0.0 mm 49 W/m2
09:19 14.5 °C 7.8 °C 985.0 hPa North 8.7 km/h 20.9 km/h 64% 0.0 mm 53 W/m2
09:24 14.5 °C 7.8 °C 985.0 hPa North 7.2 km/h 20.9 km/h 64% 0.0 mm 60 W/m2
09:29 14.5 °C 7.8 °C 985.0 hPa North 14.8 km/h 18.3 km/h 64% 0.0 mm 66 W/m2
09:34 14.5 °C 8.0 °C 985.0 hPa North 12.2 km/h 23.3 km/h 65% 0.0 mm 67 W/m2
09:39 14.6 °C 8.1 °C 984.6 hPa North 12.2 km/h 23.3 km/h 65% 0.0 mm 65 W/m2
09:44 14.6 °C 8.1 °C 985.0 hPa North 8.7 km/h 25.6 km/h 65% 0.0 mm 64 W/m2
09:49 14.5 °C 8.0 °C 984.6 hPa North 13.4 km/h 25.6 km/h 65% 0.0 mm 67 W/m2
09:54 14.5 °C 8.0 °C 985.0 hPa North 12.2 km/h 24.5 km/h 65% 0.0 mm 70 W/m2
09:59 14.5 °C 8.0 °C 985.0 hPa North 11.1 km/h 23.3 km/h 65% 0.0 mm 73 W/m2
10:04 14.4 °C 8.1 °C 985.0 hPa North 8.7 km/h 23.3 km/h 66% 0.0 mm 76 W/m2
10:09 14.5 °C 8.2 °C 985.3 hPa NNE 7.2 km/h 19.5 km/h 66% 0.0 mm 84 W/m2
10:14 14.5 °C 8.2 °C 985.3 hPa NNE 5.0 km/h 19.5 km/h 66% 0.0 mm 90 W/m2
10:19 14.6 °C 8.3 °C 985.3 hPa NNE 9.7 km/h 13.4 km/h 66% 0.0 mm 87 W/m2
10:24 14.7 °C 8.4 °C 985.3 hPa NNE 6.1 km/h 12.2 km/h 66% 0.0 mm 91 W/m2
10:29 14.9 °C 8.6 °C 985.7 hPa North 3.5 km/h 12.2 km/h 66% 0.0 mm 103 W/m2
10:34 15.0 °C 8.5 °C 985.3 hPa NNW 3.5 km/h 9.7 km/h 65% 0.0 mm 104 W/m2
10:39 15.1 °C 8.6 °C 985.7 hPa NNW 2.6 km/h 9.7 km/h 65% 0.0 mm 117 W/m2
10:44 15.2 °C 8.7 °C 985.7 hPa Calm   6.1 km/h 65% 0.0 mm 115 W/m2
10:49 15.3 °C 8.8 °C 985.7 hPa NW 2.6 km/h 6.1 km/h 65% 0.0 mm 103 W/m2
10:54 15.4 °C 8.6 °C 985.7 hPa Calm   6.1 km/h 64% 0.0 mm 93 W/m2
11:00 15.6 °C 8.8 °C 985.3 hPa Calm   6.1 km/h 64% 0.0 mm 108 W/m2
11:06 15.8 °C 9.0 °C 985.3 hPa Calm   2.6 km/h 64% 0.0 mm 102 W/m2
11:11 15.9 °C 9.1 °C 985.3 hPa Calm   2.6 km/h 64% 0.0 mm 106 W/m2
11:16 15.8 °C 8.8 °C 985.3 hPa SW 2.6 km/h 6.1 km/h 63% 0.0 mm 113 W/m2
11:21 15.7 °C 8.9 °C 985.7 hPa Calm   6.1 km/h 64% 0.0 mm 95 W/m2
11:26 15.7 °C 8.9 °C 985.7 hPa Calm   3.5 km/h 64% 0.0 mm 79 W/m2
11:31 15.6 °C 8.8 °C 985.7 hPa Calm   2.6 km/h 64% 0.0 mm 66 W/m2
11:36 15.5 °C 8.7 °C 985.7 hPa West 1.1 km/h 2.6 km/h 64% 0.0 mm 72 W/m2
11:41 15.4 °C 8.8 °C 985.7 hPa Calm   2.6 km/h 65% 0.0 mm 83 W/m2
11:46 15.5 °C 8.9 °C 985.7 hPa Calm   2.6 km/h 65% 0.0 mm 83 W/m2
11:51 15.5 °C 8.9 °C 985.3 hPa Calm   1.1 km/h 65% 0.0 mm 80 W/m2
11:56 15.5 °C 8.9 °C 985.3 hPa Calm   2.6 km/h 65% 0.0 mm 74 W/m2
12:01 15.5 °C 8.9 °C 985.3 hPa Calm   2.6 km/h 65% 0.0 mm 72 W/m2
12:06 15.4 °C 8.8 °C 985.3 hPa North 2.6 km/h 3.5 km/h 65% 0.0 mm 72 W/m2
12:09 15.3 °C 8.8 °C 985.3 hPa Calm   3.5 km/h 65% 0.0 mm 71 W/m2
12:14 15.4 °C 9.1 °C 985.3 hPa Calm   3.5 km/h 66% 0.0 mm 70 W/m2
12:19 15.3 °C 9.0 °C 985.3 hPa Calm   3.5 km/h 66% 0.0 mm 69 W/m2
12:24 15.3 °C 9.2 °C 985.3 hPa Calm   3.5 km/h 67% 0.0 mm 69 W/m2
12:29 15.2 °C 9.1 °C 985.3 hPa Calm   5.0 km/h 67% 0.0 mm 71 W/m2
12:34 15.2 °C 9.3 °C 985.3 hPa North 1.1 km/h 5.0 km/h 68% 0.0 mm 61 W/m2
12:39 15.2 °C 9.1 °C 985.3 hPa North 2.6 km/h 5.0 km/h 67% 0.0 mm 58 W/m2
12:44 15.2 °C 8.9 °C 985.3 hPa Calm   5.0 km/h 66% 0.0 mm 62 W/m2
12:49 15.2 °C 9.1 °C 985.3 hPa Calm   5.0 km/h 67% 0.0 mm 61 W/m2
12:54 15.2 °C 9.1 °C 985.3 hPa Calm   2.6 km/h 67% 0.0 mm 61 W/m2
12:59 15.2 °C 9.3 °C 985.3 hPa Calm   2.6 km/h 68% 0.0 mm 58 W/m2
13:04 15.1 °C 9.4 °C 985.3 hPa NW 1.1 km/h 5.0 km/h 69% 0.0 mm 55 W/m2
13:09 15.0 °C 9.6 °C 985.3 hPa Calm   5.0 km/h 70% 0.0 mm 58 W/m2
13:14 14.9 °C 10.1 °C 985.3 hPa Calm   3.5 km/h 73% 0.0 mm 65 W/m2
13:19 14.8 °C 10.2 °C 985.3 hPa North 1.1 km/h 2.6 km/h 74% 0.0 mm 68 W/m2
13:24 14.6 °C 10.2 °C 985.3 hPa Calm   2.6 km/h 75% 0.3 mm 69 W/m2
13:29 14.6 °C 10.4 °C 985.3 hPa Calm   2.6 km/h 76% 0.3 mm 68 W/m2
13:34 14.4 °C 10.4 °C 985.3 hPa Calm   5.0 km/h 77% 0.3 mm 69 W/m2
13:39 14.4 °C 10.4 °C 985.7 hPa Calm   5.0 km/h 77% 0.3 mm 71 W/m2
13:44 14.3 °C 10.5 °C 985.3 hPa Calm   3.5 km/h 78% 0.3 mm 69 W/m2
13:49 14.2 °C 10.6 °C 985.3 hPa Calm   3.5 km/h 79% 0.3 mm 69 W/m2
13:54 14.3 °C 10.9 °C 985.7 hPa Calm   3.5 km/h 80% 0.3 mm 66 W/m2
13:59 14.3 °C 11.3 °C 985.7 hPa Calm   1.1 km/h 82% 0.3 mm 69 W/m2
14:04 14.2 °C 11.2 °C 985.7 hPa Calm   1.1 km/h 82% 0.3 mm 72 W/m2
14:09 14.3 °C 11.3 °C 985.7 hPa Calm   1.1 km/h 82% 0.3 mm 72 W/m2
14:14 14.4 °C 11.6 °C 985.7 hPa Calm     83% 0.5 mm 73 W/m2
14:19 14.5 °C 11.4 °C 986.0 hPa Calm   1.1 km/h 82% 0.5 mm 70 W/m2
14:24 14.6 °C 11.6 °C 986.0 hPa Calm   1.1 km/h 82% 0.3 mm 69 W/m2
14:29 14.7 °C 11.7 °C 985.7 hPa Calm     82% 0.3 mm 70 W/m2
14:34 14.7 °C 11.5 °C 986.0 hPa Calm   1.1 km/h 81% 0.3 mm 75 W/m2
14:39 14.7 °C 11.7 °C 986.0 hPa Calm   1.1 km/h 82% 0.3 mm 83 W/m2
14:44 14.6 °C 11.6 °C 986.0 hPa North 3.5 km/h 5.0 km/h 82% 0.3 mm 93 W/m2
14:49 14.5 °C 11.3 °C 986.0 hPa North 3.5 km/h 5.0 km/h 81% 0.3 mm 91 W/m2
14:54 14.4 °C 11.0 °C 986.0 hPa North 2.6 km/h 5.0 km/h 80% 0.3 mm 75 W/m2
14:59 14.3 °C 10.9 °C 986.3 hPa Calm   5.0 km/h 80% 0.3 mm 65 W/m2
15:04 14.2 °C 10.8 °C 986.3 hPa Calm   5.0 km/h 80% 0.3 mm 67 W/m2
15:09 14.2 °C 10.8 °C 986.3 hPa NNW 2.6 km/h 3.5 km/h 80% 0.3 mm 70 W/m2
15:14 14.1 °C 10.7 °C 986.3 hPa NNW 2.6 km/h 5.0 km/h 80% 0.0 mm 68 W/m2
15:19 14.0 °C 10.8 °C 986.3 hPa North 3.5 km/h 6.1 km/h 81% 0.0 mm 67 W/m2
15:24 14.0 °C 11.0 °C 986.7 hPa North 3.5 km/h 6.1 km/h 82% 0.0 mm 63 W/m2
15:29 13.9 °C 11.1 °C 986.7 hPa North 2.6 km/h 6.1 km/h 83% 0.0 mm 56 W/m2
15:34 13.9 °C 11.2 °C 986.7 hPa NNW 3.5 km/h 6.1 km/h 84% 0.0 mm 43 W/m2
15:39 13.9 °C 11.4 °C 986.7 hPa NNW 3.5 km/h 6.1 km/h 85% 0.0 mm 35 W/m2
15:44 13.7 °C 11.2 °C 987.0 hPa NNW 2.6 km/h 6.1 km/h 85% 0.0 mm 32 W/m2
15:49 13.7 °C 11.2 °C 987.0 hPa NNW 2.6 km/h 6.1 km/h 85% 0.0 mm 27 W/m2
15:54 13.6 °C 11.1 °C 987.0 hPa NNW 2.6 km/h 6.1 km/h 85% 0.0 mm 21 W/m2
15:59 13.5 °C 11.1 °C 987.0 hPa Calm   3.5 km/h 85% 0.0 mm 17 W/m2
16:04 13.4 °C 10.9 °C 987.4 hPa Calm   3.5 km/h 85% 0.0 mm 14 W/m2
16:09 13.3 °C 11.0 °C 987.4 hPa WSW 5.0 km/h 7.2 km/h 86% 0.0 mm 16 W/m2
16:14 13.0 °C 10.9 °C 987.4 hPa SW 6.1 km/h 9.7 km/h 87% 0.0 mm 16 W/m2
16:19 12.8 °C 10.7 °C 987.7 hPa SW 8.7 km/h 11.1 km/h 87% 0.3 mm 6 W/m2
16:24 12.5 °C 10.4 °C 988.0 hPa WSW 3.5 km/h 14.8 km/h 87% 0.3 mm 3 W/m2
16:29 12.4 °C 10.4 °C 988.0 hPa WSW 5.0 km/h 14.8 km/h 88% 0.3 mm 4 W/m2
16:34 12.3 °C 10.6 °C 988.0 hPa SW 5.0 km/h 9.7 km/h 89% 0.5 mm 1 W/m2
16:39 12.2 °C 10.8 °C 988.4 hPa SW 11.1 km/h 13.4 km/h 91% 0.5 mm 0 W/m2
16:44 12.2 °C 10.9 °C 988.4 hPa SW 8.7 km/h 18.3 km/h 92% 1.0 mm 0 W/m2
16:49 12.1 °C 10.8 °C 988.4 hPa SW 8.7 km/h 18.3 km/h 92% 1.0 mm 0 W/m2
16:54 12.0 °C 10.7 °C 988.7 hPa SW 14.8 km/h 20.9 km/h 92% 1.3 mm 0 W/m2
16:59 11.9 °C 10.5 °C 988.7 hPa SW 11.1 km/h 20.9 km/h 91% 1.3 mm 0 W/m2
17:04 12.0 °C 10.2 °C 989.1 hPa SW 12.2 km/h 20.9 km/h 89% 1.5 mm 0 W/m2
17:09 12.0 °C 10.2 °C 989.1 hPa SSW 11.1 km/h 23.3 km/h 89% 1.5 mm 0 W/m2
17:14 11.9 °C 10.5 °C 989.1 hPa SW 12.2 km/h 23.3 km/h 91% 1.5 mm 0 W/m2
17:19 11.9 °C 10.5 °C 989.4 hPa SW 11.1 km/h 20.9 km/h 91% 1.5 mm 0 W/m2
17:24 11.8 °C 10.6 °C 989.4 hPa SW 14.8 km/h 25.6 km/h 92% 1.8 mm 0 W/m2
17:29 11.8 °C 10.6 °C 989.4 hPa SSW 12.2 km/h 25.6 km/h 92% 1.8 mm 0 W/m2
17:34 11.7 °C 10.4 °C 989.7 hPa SSW 18.3 km/h 27.0 km/h 92% 1.8 mm 0 W/m2
17:39 11.6 °C 10.5 °C 989.7 hPa SSW 18.3 km/h 27.0 km/h 93% 2.0 mm 0 W/m2
17:44 11.5 °C 10.4 °C 990.1 hPa SSW 17.2 km/h 29.4 km/h 93% 2.0 mm 0 W/m2
17:49 11.5 °C 10.4 °C 990.1 hPa SSW 15.8 km/h 29.4 km/h 93% 2.3 mm 0 W/m2
17:54 11.5 °C 10.4 °C 990.1 hPa SSW 9.7 km/h 25.6 km/h 93% 2.0 mm 0 W/m2
17:59 11.5 °C 10.4 °C 990.4 hPa South 13.4 km/h 20.9 km/h 93% 2.0 mm 0 W/m2
18:04 11.5 °C 10.4 °C 990.7 hPa South 13.4 km/h 21.9 km/h 93% 1.8 mm 0 W/m2
18:09 11.5 °C 10.4 °C 990.7 hPa SSW 12.2 km/h 27.0 km/h 93% 1.8 mm 0 W/m2
18:14 11.4 °C 10.3 °C 990.7 hPa SSW 13.4 km/h 27.0 km/h 93% 2.0 mm 0 W/m2
18:19 11.4 °C 10.4 °C 990.7 hPa SW 11.1 km/h 25.6 km/h 94% 1.8 mm 0 W/m2
18:24 11.3 °C 10.4 °C 991.1 hPa SW 11.1 km/h 24.5 km/h 94% 1.5 mm 0 W/m2
18:29 11.2 °C 10.3 °C 991.1 hPa WSW 6.1 km/h 20.9 km/h 94% 1.8 mm 0 W/m2
18:34 11.0 °C 10.2 °C 991.1 hPa SW 7.2 km/h 20.9 km/h 95% 1.5 mm 0 W/m2
18:39 11.0 °C 10.2 °C 991.4 hPa SW 9.7 km/h 14.8 km/h 95% 1.3 mm 0 W/m2
18:44 11.0 °C 10.2 °C 991.4 hPa SW 9.7 km/h 14.8 km/h 95% 1.3 mm 0 W/m2
18:49 11.0 °C 10.2 °C 991.4 hPa WSW 8.7 km/h 14.8 km/h 95% 1.0 mm 0 W/m2
18:54 11.0 °C 10.4 °C 991.4 hPa WSW 5.0 km/h 13.4 km/h 96% 1.0 mm 0 W/m2
18:59 11.0 °C 10.4 °C 991.8 hPa WSW 6.1 km/h 12.2 km/h 96% 1.0 mm 0 W/m2
19:04 11.1 °C 10.5 °C 991.8 hPa West 11.1 km/h 14.8 km/h 96% 1.0 mm 0 W/m2
19:09 11.1 °C 10.5 °C 991.8 hPa West 7.2 km/h 14.8 km/h 96% 1.0 mm 0 W/m2
19:14 11.2 °C 10.6 °C 991.8 hPa West 8.7 km/h 21.9 km/h 96% 0.5 mm 0 W/m2
19:19 11.2 °C 10.4 °C 992.1 hPa WSW 14.8 km/h 24.5 km/h 95% 0.5 mm 0 W/m2
19:24 11.3 °C 10.2 °C 992.1 hPa West 6.1 km/h 24.5 km/h 93% 0.5 mm 0 W/m2
19:29 11.2 °C 10.1 °C 992.1 hPa West 13.4 km/h 21.9 km/h 93% 0.3 mm 0 W/m2
19:34 11.3 °C 10.1 °C 992.4 hPa WSW 17.2 km/h 30.6 km/h 92% 0.3 mm 0 W/m2
19:39 11.2 °C 9.4 °C 992.1 hPa West 14.8 km/h 30.6 km/h 89% 0.3 mm 0 W/m2
19:44 11.1 °C 9.3 °C 992.8 hPa West 12.2 km/h 25.6 km/h 89% 0.0 mm 0 W/m2
19:49 11.0 °C 9.3 °C 992.8 hPa WSW 17.2 km/h 27.0 km/h 89% 0.0 mm 0 W/m2
19:54 11.0 °C 9.3 °C 992.8 hPa WSW 8.7 km/h 27.0 km/h 89% 0.0 mm 0 W/m2
19:59 10.9 °C 9.3 °C 992.8 hPa WSW 7.2 km/h 24.5 km/h 90% 0.3 mm 0 W/m2
20:04 10.9 °C 9.3 °C 992.8 hPa WSW 12.2 km/h 28.0 km/h 90% 0.3 mm 0 W/m2
20:09 11.0 °C 9.1 °C 992.8 hPa West 19.5 km/h 28.0 km/h 88% 0.3 mm 0 W/m2
20:14 11.0 °C 9.1 °C 993.1 hPa WSW 24.5 km/h 34.3 km/h 88% 0.3 mm 0 W/m2
20:19 10.8 °C 9.2 °C 993.1 hPa SW 12.2 km/h 34.3 km/h 90% 0.3 mm 0 W/m2
20:24 10.8 °C 9.2 °C 993.1 hPa WSW 18.3 km/h 31.7 km/h 90% 0.3 mm 0 W/m2
20:29 10.9 °C 9.3 °C 993.1 hPa West 11.1 km/h 23.3 km/h 90% 0.3 mm 0 W/m2
20:34 10.8 °C 9.2 °C 993.5 hPa West 14.8 km/h 23.3 km/h 90% 0.3 mm 0 W/m2
20:39 10.8 °C 9.2 °C 993.5 hPa WSW 9.7 km/h 24.5 km/h 90% 0.3 mm 0 W/m2
20:44 10.8 °C 9.2 °C 993.5 hPa West 11.1 km/h 31.7 km/h 90% 0.3 mm 0 W/m2
20:49 10.8 °C 9.2 °C 993.8 hPa West 6.1 km/h 31.7 km/h 90% 0.3 mm 0 W/m2
20:54 10.9 °C 9.3 °C 993.8 hPa West 23.3 km/h 37.8 km/h 90% 0.3 mm 0 W/m2
20:59 10.9 °C 9.3 °C 993.8 hPa WSW 19.5 km/h 37.8 km/h 90% 0.0 mm 0 W/m2
21:04 10.9 °C 9.3 °C 994.1 hPa WSW 20.9 km/h 37.8 km/h 90% 0.0 mm 0 W/m2
21:09 10.8 °C 9.4 °C 994.1 hPa WSW 20.9 km/h 33.1 km/h 91% 0.3 mm 0 W/m2
21:14 10.6 °C 9.3 °C 994.1 hPa WSW 11.1 km/h 33.1 km/h 92% 0.3 mm 0 W/m2
21:19 10.6 °C 9.5 °C 994.1 hPa SW 14.8 km/h 33.1 km/h 93% 0.5 mm 0 W/m2
21:24 10.7 °C 9.8 °C 994.1 hPa WSW 15.8 km/h 33.1 km/h 94% 0.5 mm 0 W/m2
21:29 10.7 °C 9.9 °C 994.1 hPa WNW 17.2 km/h 33.1 km/h 95% 0.5 mm 0 W/m2
21:34 10.8 °C 10.1 °C 994.1 hPa West 21.9 km/h 33.1 km/h 95% 1.0 mm 0 W/m2
21:39 10.8 °C 10.1 °C 994.5 hPa WSW 14.8 km/h 30.6 km/h 95% 1.3 mm 0 W/m2
21:44 10.8 °C 10.1 °C 994.5 hPa WSW 23.3 km/h 36.7 km/h 95% 1.3 mm 0 W/m2
21:49 10.8 °C 9.9 °C 994.5 hPa WSW 20.9 km/h 36.7 km/h 94% 1.3 mm 0 W/m2
21:54 10.9 °C 10.0 °C 994.8 hPa WSW 18.3 km/h 39.3 km/h 94% 1.3 mm 0 W/m2
21:59 10.8 °C 9.9 °C 994.8 hPa WSW 13.4 km/h 39.3 km/h 94% 1.5 mm 0 W/m2
22:04 10.8 °C 10.1 °C 994.8 hPa WSW 21.9 km/h 39.3 km/h 95% 1.5 mm 0 W/m2
22:09 10.8 °C 9.9 °C 994.8 hPa WSW 20.9 km/h 39.3 km/h 94% 1.3 mm 0 W/m2
22:14 10.8 °C 9.9 °C 995.1 hPa WSW 21.9 km/h 37.8 km/h 94% 1.0 mm 0 W/m2
22:19 10.8 °C 9.9 °C 995.1 hPa SW 15.8 km/h 33.1 km/h 94% 1.0 mm 0 W/m2
22:24 10.9 °C 10.0 °C 995.1 hPa SW 23.3 km/h 33.1 km/h 94% 1.0 mm 0 W/m2
22:29 11.1 °C 9.8 °C 995.5 hPa WSW 19.5 km/h 36.7 km/h 92% 0.5 mm 0 W/m2
22:34 11.1 °C 9.5 °C 995.5 hPa West 12.2 km/h 36.7 km/h 90% 0.5 mm 0 W/m2
22:39 11.2 °C 9.4 °C 995.5 hPa West 19.5 km/h 35.6 km/h 89% 0.3 mm 0 W/m2
22:44 11.3 °C 9.4 °C 995.8 hPa WSW 23.3 km/h 41.7 km/h 88% 0.3 mm 0 W/m2
22:49 11.3 °C 9.2 °C 995.8 hPa SW 25.6 km/h 41.7 km/h 87% 0.3 mm 0 W/m2
22:54 11.3 °C 9.2 °C 995.8 hPa SW 25.6 km/h 41.7 km/h 87% 0.0 mm 0 W/m2
22:59 11.3 °C 9.2 °C 995.8 hPa SW 23.3 km/h 41.7 km/h 87% 0.0 mm 0 W/m2
23:04 11.3 °C 9.2 °C 996.2 hPa WSW 15.8 km/h 41.7 km/h 87% 0.0 mm 0 W/m2
23:09 11.1 °C 9.0 °C 996.2 hPa WSW 20.9 km/h 40.4 km/h 87% 0.0 mm 0 W/m2
23:14 11.2 °C 9.1 °C 996.5 hPa WSW 24.5 km/h 35.6 km/h 87% 0.0 mm 0 W/m2
23:19 11.2 °C 8.9 °C 996.5 hPa SW 20.9 km/h 39.3 km/h 86% 0.0 mm 0 W/m2
23:24 11.2 °C 8.9 °C 996.2 hPa WSW 19.5 km/h 39.3 km/h 86% 0.0 mm 0 W/m2
23:29 11.3 °C 9.1 °C 996.5 hPa WSW 23.3 km/h 39.3 km/h 86% 0.0 mm 0 W/m2
23:34 11.2 °C 8.9 °C 996.8 hPa SW 25.6 km/h 41.7 km/h 86% 0.0 mm 0 W/m2
23:39 11.3 °C 8.9 °C 996.8 hPa SW 20.9 km/h 41.7 km/h 85% 0.0 mm 0 W/m2
23:44 11.2 °C 8.8 °C 996.8 hPa WSW 20.9 km/h 41.7 km/h 85% 0.0 mm 0 W/m2
23:49 11.3 °C 8.9 °C 996.8 hPa WSW 15.8 km/h 40.4 km/h 85% 0.0 mm 0 W/m2
23:54 11.1 °C 8.7 °C 997.2 hPa WSW 18.3 km/h 40.4 km/h 85% 0.0 mm 0 W/m2
23:59 11.1 °C 8.5 °C 996.8 hPa WSW 20.9 km/h 41.7 km/h 84% 0.0 mm 0 W/m2
Northern Hawkes Bay. New Zealand Historic Data
Compliments of Weather Underground - 2.25 mb